Date,TemperatureHighF,TemperatureAvgF,TemperatureLowF,DewpointHighF,DewpointAvgF,DewpointLowF,HumidityHigh,HumidityAvg,HumidityLow,PressureMaxIn,PressureMinIn,WindSpeedMaxMPH,WindSpeedAvgMPH,GustSpeedMaxMPH,PrecipitationSumIn
2013-1-1,24,17,11,9,7,4,79,64,45,30.10,30.04,11,3,11,0.00
2013-1-2,30,22,10,17,12,4,78,65,50,30.10,29.98,16,5,16,0.00
2013-1-3,29,26,18,25,21,15,89,83,79,30.15,29.99,16,6,17,0.00
2013-1-4,35,27,13,24,20,10,87,76,62,30.11,30.01,23,8,23,0.00
2013-1-5,37,32,23,33,28,20,95,86,69,30.08,29.84,21,6,21,0.03
2013-1-6,32,27,22,26,22,19,92,82,74,30.20,29.85,20,4,20,0.00
2013-1-7,40,32,20,28,25,17,88,74,58,30.19,29.98,24,7,24,0.00
2013-1-8,43,37,27,32,29,24,89,75,61,30.04,29.92,19,5,21,0.00
2013-1-9,49,40,31,33,27,23,87,62,39,30.31,30.00,30,7,31,0.00
2013-1-10,46,38,26,38,30,23,95,75,47,30.34,29.82,11,3,11,0.33
2013-1-11,52,50,46,51,48,46,98,93,87,29.64,29.55,25,7,25,0.23
2013-1-12,50,39,30,47,33,26,90,79,71,29.84,29.63,23,5,23,0.00
2013-1-13,25,21,14,23,17,9,91,84,76,30.08,29.82,20,5,20,0.00
2013-1-14,27,19,11,15,11,7,92,71,52,30.34,30.30,9,2,16,0.01
2013-1-15,32,25,14,18,16,11,89,69,52,30.32,30.04,8,1,8,0.03
2013-1-16,35,30,19,27,22,14,86,71,58,30.04,29.70,28,8,28,0.01
2013-1-17,28,25,21,14,11,6,74,56,42,30.27,30.11,17,4,17,0.00
2013-1-18,42,35,21,31,26,17,83,70,61,30.26,29.80,33,10,33,0.05
2013-1-19,47,42,30,38,33,12,79,71,48,29.75,29.58,34,10,40,0.00
2013-1-20,29,16,12,13,4,2,67,59,49,30.17,29.73,14,4,31,0.00
2013-1-21,14,8,5,3,-4,-6,69,58,48,30.16,30.02,25,7,25,0.00
2013-1-22,12,7,-1,-2,-4,-7,76,61,51,30.29,30.22,18,5,20,0.00
2013-1-23,19,16,12,15,10,1,85,74,61,30.18,30.00,27,5,27,0.00
2013-1-24,21,15,4,12,4,-3,79,61,44,30.52,30.14,11,3,11,0.00
2013-1-25,28,24,18,21,18,6,89,78,55,30.29,29.85,17,5,18,0.00
2013-1-26,29,22,11,14,10,7,82,60,46,30.28,30.18,7,2,8,0.04
2013-1-27,34,30,25,33,25,19,94,81,69,30.21,29.83,16,3,16,0.00
2013-1-28,48,44,39,48,42,37,98,92,83,29.81,29.69,19,3,19,0.14
2013-1-29,62,58,53,59,56,52,98,95,91,29.52,29.27,26,5,26,1.03
2013-1-30,38,32,23,37,31,20,97,94,83,29.40,29.05,21,5,21,0.31
2013-1-31,17,12,6,12,6,0,82,76,70,30.01,29.63,26,8,26,0.00
2013-2-1,13,7,0,6,1,-5,79,73,68,30.25,30.12,18,7,22,0.00
2013-2-2,23,16,9,21,11,3,93,83,75,30.00,29.91,16,4,16,0.00
2013-2-3,22,19,12,16,13,9,90,79,68,29.96,29.86,17,4,18,0.01
2013-2-4,28,24,16,25,21,12,94,89,85,29.85,29.74,11,3,13,0.00
2013-2-5,30,26,16,28,23,12,94,87,82,29.92,29.68,19,5,19,0.00
2013-2-6,16,15,15,13,13,13,92,91,90,30.08,30.06,0,0,5,0.00
2013-2-7,34,33,32,33,32,31,97,96,94,29.93,29.73,7,1,7,0.58
2013-2-8,33,26,24,32,23,22,97,91,89,30.27,29.79,6,1,7,0.01
2013-2-9,34,30,26,28,25,21,93,83,76,30.27,30.01,17,3,17,0.06
2013-2-10,49,42,36,46,40,31,96,93,83,29.84,29.35,26,7,26,0.45
2013-2-11,34,32,29,28,25,22,79,75,72,29.85,29.46,38,13,38,0.01
2013-2-12,28,26,24,23,22,19,87,82,77,29.98,29.82,13,4,18,0.00
2013-2-13,43,36,24,34,30,23,94,80,64,29.68,29.59,15,4,15,0.00
2013-2-14,38,36,33,33,29,23,86,74,60,29.83,29.50,25,7,25,0.00
2013-2-15,31,26,21,18,13,11,75,59,45,30.05,29.97,15,4,15,0.00
2013-2-16,21,16,12,11,6,3,76,64,57,30.09,30.00,18,4,18,0.00
2013-2-17,30,24,8,16,7,3,82,51,34,30.11,29.93,12,2,12,0.00
2013-2-18,51,44,32,46,38,22,94,78,65,29.68,29.27,28,9,28,0.30
2013-2-19,34,14,11,33,8,5,93,77,72,30.03,29.34,31,10,32,0.00
2013-2-20,23,17,8,13,9,1,82,70,63,30.26,30.03,14,4,14,0.00
2013-2-21,29,26,21,26,22,17,92,84,80,30.26,29.92,22,5,22,0.00
2013-2-22,33,29,24,32,27,23,96,92,86,29.77,29.67,23,5,23,0.02
2013-2-23,27,25,23,21,20,18,89,79,70,29.84,29.78,18,6,20,0.00
2013-2-24,39,31,16,24,21,13,90,69,53,30.02,29.92,8,2,8,0.02
2013-2-25,44,36,22,30,26,20,94,69,47,30.05,29.89,9,2,9,0.00
2013-2-26,35,33,31,32,30,27,97,89,74,29.90,29.40,23,7,23,0.01
2013-2-27,34,33,32,33,32,31,97,96,94,29.57,29.41,13,4,13,0.16
2013-2-28,36,33,29,33,28,22,96,84,75,29.94,29.69,15,6,17,0.09
2013-3-1,27,26,25,24,22,21,88,86,82,30.06,29.96,16,6,16,0.00
2013-3-2,31,25,17,19,16,12,84,71,58,30.07,30.02,13,4,14,0.01
2013-3-3,17,15,14,14,11,10,92,83,81,30.04,30.00,3,1,3,0.00
2013-3-4,32,29,19,25,22,16,94,73,57,30.00,29.88,14,4,14,0.00
2013-3-5,32,30,29,30,29,28,96,95,92,29.82,29.67,16,4,17,0.05
2013-3-6,34,31,27,29,27,25,92,85,79,30.17,30.02,14,4,14,0.14
2013-3-7,38,34,27,26,25,24,86,70,59,30.29,30.23,10,2,10,0.22
2013-3-9,47,41,33,35,32,27,89,72,63,30.10,29.73,21,5,21,0.05
2013-3-10,51,47,43,49,45,42,98,94,87,29.67,29.46,17,3,18,0.79
2013-3-11,41,36,33,41,35,30,100,95,89,29.62,29.40,18,6,18,0.08
2013-3-12,36,32,28,29,26,22,91,78,68,29.79,29.74,22,8,23,0.00
2013-3-13,33,28,22,18,15,8,80,60,36,30.20,29.99,17,5,22,0.00
2013-3-14,35,31,22,30,23,15,89,73,47,30.18,30.02,13,4,13,0.00
2013-3-15,41,36,31,38,34,29,95,90,78,29.84,29.65,12,2,12,0.17
2013-3-16,32,31,30,31,27,24,97,87,76,29.97,29.64,14,4,14,0.00
2013-3-17,35,31,25,26,22,17,78,71,62,30.08,29.90,17,4,17,0.00
2013-3-18,34,31,24,32,28,17,95,90,71,29.66,29.48,31,6,31,0.07
2013-3-19,32,25,16,18,14,10,78,64,52,29.96,29.73,31,12,31,0.00
2013-3-20,23,19,14,14,8,4,81,63,56,29.98,29.90,25,6,25,0.00
2013-3-21,33,26,13,18,14,6,74,60,49,29.94,29.88,13,3,13,0.00
2013-3-22,40,32,19,21,17,14,83,55,39,29.95,29.88,10,2,10,0.00
2013-3-23,42,35,24,26,23,19,89,62,44,30.01,29.90,13,3,13,0.00
2013-3-24,36,34,32,30,27,26,93,77,67,29.78,29.53,21,7,25,0.00
2013-3-25,37,33,30,29,27,24,86,78,69,29.94,29.61,19,6,19,0.00
2013-3-26,41,38,32,27,25,23,78,62,50,30.11,30.00,13,4,14,0.00
2013-3-27,41,38,33,26,24,22,73,57,48,30.18,30.14,14,2,14,0.00
2013-3-28,50,42,28,26,24,22,79,50,37,30.22,30.14,12,2,12,0.00
2013-3-29,54,47,33,29,25,21,81,44,30,30.18,30.08,11,2,11,0.00
2013-3-30,58,50,34,40,33,25,68,51,43,30.05,29.77,20,6,21,0.00
2013-3-31,56,47,39,41,36,27,95,68,46,29.71,29.56,24,7,24,0.00
2013-4-1,39,34,29,21,17,13,71,48,38,30.05,29.89,21,5,21,0.00
2013-4-2,43,36,24,19,15,10,75,43,28,30.16,30.09,20,4,20,0.00
2013-4-3,44,38,25,22,17,13,73,44,32,30.32,30.16,11,3,13,0.00
2013-4-4,58,49,30,35,27,20,66,43,31,30.09,29.84,15,5,17,0.00
2013-4-5,45,41,36,30,25,18,76,53,43,30.09,30.00,15,4,15,0.00
2013-4-6,68,58,38,44,36,25,64,45,34,29.91,29.44,32,9,32,0.06
2013-4-7,60,50,43,42,39,35,82,66,51,29.80,29.64,16,4,32,0.01
2013-4-8,64,56,44,55,50,40,96,79,67,29.80,29.41,39,7,39,0.41
2013-4-9,54,44,40,49,42,39,100,91,79,29.83,29.69,15,5,15,0.09
2013-4-10,40,39,37,39,38,36,96,95,93,30.00,29.67,35,6,36,0.39
2013-4-11,46,43,39,45,43,38,98,98,97,29.57,29.42,17,3,17,0.32
2013-4-12,44,40,36,38,35,31,90,83,74,29.71,29.44,22,7,22,0.01
2013-4-13,44,40,33,32,30,26,89,68,55,29.84,29.72,24,7,24,0.02
2013-4-14,70,55,38,52,41,29,75,60,48,29.85,29.51,19,6,19,0.00
2013-4-15,65,56,46,55,50,43,94,81,63,29.81,29.61,22,6,22,0.37
2013-4-16,57,48,38,38,35,32,94,64,43,30.12,29.92,14,3,14,0.00
2013-4-17,47,44,41,46,41,34,100,90,72,30.14,29.72,20,5,20,0.98
2013-4-18,63,55,44,60,54,39,99,94,84,29.53,29.26,32,8,32,2.65
2013-4-19,39,37,35,32,31,29,86,77,68,29.73,29.36,33,11,33,0.00
2013-4-20,45,39,30,25,21,15,72,50,35,30.28,29.96,17,4,17,0.00
2013-4-21,54,47,33,32,26,20,65,45,37,30.39,30.19,17,5,17,0.00
2013-4-22,66,58,42,39,36,31,66,43,33,30.20,29.91,15,5,18,0.00
2013-4-23,57,47,38,50,44,36,94,89,75,29.80,29.73,12,4,14,0.68
2013-4-24,50,44,36,35,31,25,95,61,44,29.98,29.83,18,5,18,0.07
2013-4-25,51,46,40,38,33,30,90,62,47,30.17,29.92,18,5,19,0.08
2013-4-26,66,58,40,48,42,30,65,54,48,30.20,30.08,25,8,25,0.00
2013-4-27,68,61,45,48,43,37,92,54,33,30.11,29.88,14,3,14,0.00
2013-4-28,66,59,52,54,52,50,94,77,61,29.76,29.66,8,1,9,0.02
2013-4-29,72,66,52,56,53,50,92,65,51,29.76,29.61,23,6,23,0.00
2013-4-30,84,75,61,61,58,55,82,59,39,29.75,29.63,24,8,25,0.00
2013-5-1,84,78,65,61,54,50,77,47,32,29.95,29.75,18,4,18,0.00
2013-5-2,58,50,45,47,43,39,89,76,62,30.07,29.98,17,4,17,0.09
2013-5-3,47,44,40,46,43,38,96,94,92,29.94,29.82,11,3,12,0.09
2013-5-4,70,62,49,51,49,46,91,63,49,29.90,29.81,15,2,15,0.01
2013-5-5,70,63,50,48,46,41,79,53,43,29.89,29.82,13,3,13,0.00
2013-5-6,72,65,54,44,40,34,66,42,28,29.88,29.82,14,2,14,0.00
2013-5-7,77,69,50,48,44,39,65,41,33,29.90,29.82,10,2,10,0.00
2013-5-8,80,72,48,50,47,42,89,43,29,29.88,29.80,9,1,9,0.00
2013-5-9,74,64,49,61,54,48,95,74,50,29.80,29.69,22,1,22,0.31
2013-5-10,47,46,44,46,44,42,97,92,87,29.85,29.68,12,3,13,0.12
2013-5-11,58,52,44,50,38,26,97,63,36,29.89,29.69,22,5,23,0.00
2013-5-12,55,48,37,33,28,25,73,47,33,29.98,29.92,15,3,21,0.00
2013-5-13,66,55,34,38,32,25,94,45,22,30.04,29.89,12,2,13,0.00
2013-5-14,91,77,57,59,52,42,62,44,22,29.67,29.48,22,4,22,0.00
2013-5-15,84,76,66,54,51,47,66,42,29,29.66,29.54,12,2,12,0.00
2013-5-16,83,74,55,54,47,40,86,42,23,29.81,29.66,11,2,12,0.00
2013-5-17,71,63,56,56,50,44,69,62,55,29.89,29.83,10,1,10,0.00
2013-5-18,80,72,54,64,60,51,90,67,53,29.90,29.79,11,2,11,0.00
2013-5-19,86,79,60,67,64,58,92,62,47,29.80,29.60,15,2,15,0.00
2013-5-21,80,74,63,66,63,60,91,70,54,29.54,29.48,21,5,21,0.08
2013-5-22,72,67,61,66,61,56,98,82,61,29.56,29.46,18,3,18,0.80
2013-5-23,54,49,42,49,44,35,94,82,70,30.13,29.70,15,3,16,0.04
2013-5-24,60,53,37,41,36,30,88,54,34,30.30,30.18,10,1,10,0.00
2013-5-25,57,53,46,43,40,36,73,60,50,30.26,30.15,7,0,7,0.00
2013-5-26,69,59,45,54,47,39,82,66,42,30.15,30.00,12,2,12,0.02
2013-5-27,62,58,56,57,56,54,96,91,82,29.89,29.70,9,1,9,0.00
2013-5-28,76,71,64,70,67,63,98,87,78,29.66,29.52,19,4,24,0.41
2013-5-29,84,75,63,70,66,61,95,73,56,29.80,29.66,13,3,16,0.02
2013-5-30,83,76,63,71,67,60,95,74,60,29.75,29.58,26,5,26,0.18
2013-5-31,76,70,63,67,65,62,97,84,70,29.70,29.56,18,4,22,0.22
2013-6-1,74,68,62,66,64,60,96,87,75,29.59,29.50,17,4,18,0.33
2013-6-2,60,53,46,59,50,44,95,88,81,29.89,29.65,9,1,9,0.00
2013-6-3,70,60,40,50,45,40,98,60,39,29.98,29.88,9,1,9,0.01
2013-6-4,73,65,52,51,46,42,86,51,36,30.01,29.93,10,1,11,0.00
2013-6-5,69,62,54,57,52,48,85,71,51,29.93,29.78,7,1,8,0.04
2013-6-6,64,59,55,57,53,48,96,81,61,29.77,29.74,11,1,11,0.22
2013-6-7,68,63,53,53,49,40,84,61,42,29.80,29.76,13,2,13,0.00
2013-6-8,74,64,47,48,45,40,94,54,32,29.84,29.80,5,1,5,0.00
2013-6-9,80,75,56,61,58,51,86,56,47,29.83,29.64,14,2,16,0.00
2013-6-10,78,72,63,67,64,62,97,78,63,29.68,29.59,11,1,11,0.04
2013-6-11,83,76,62,69,64,60,94,68,53,29.76,29.63,10,2,12,0.02
2013-6-12,88,75,67,74,68,64,96,79,61,29.76,29.43,13,1,13,0.26
2013-6-13,76,69,60,59,56,53,80,64,51,29.89,29.66,11,2,11,0.00
2013-6-14,79,70,54,58,55,51,88,60,44,29.98,29.85,9,1,9,0.00
2013-6-15,79,72,61,69,65,56,92,78,66,29.89,29.69,14,2,14,0.07
2013-6-17,88,82,68,63,58,53,75,46,31,29.77,29.67,15,3,15,0.01
2013-6-18,70,63,57,58,54,47,94,74,58,29.92,29.81,12,2,12,0.00
2013-6-19,76,70,53,58,51,43,87,54,36,29.99,29.92,9,1,9,0.00
2013-6-20,88,78,58,66,62,51,79,57,39,30.00,29.89,8,1,9,0.00
2013-6-21,81,74,67,70,66,61,96,77,60,30.00,29.68,17,2,17,0.51
2013-6-22,79,74,68,73,69,66,96,84,71,29.94,29.78,15,2,15,0.05
2013-6-23,87,79,68,74,69,65,90,72,62,29.85,29.75,17,4,18,0.00
2013-6-24,85,74,67,72,67,64,94,79,59,29.89,29.68,31,4,34,0.22
2013-6-25,85,78,67,76,72,65,94,81,71,29.80,29.64,15,2,15,1.72
2013-6-26,80,73,66,71,68,64,96,85,73,29.68,29.55,14,2,14,0.27
2013-6-27,90,81,66,74,70,66,98,70,49,29.62,29.50,18,3,18,0.01
2013-6-28,81,74,68,66,62,59,88,68,49,29.52,29.43,19,2,21,0.11
2013-6-29,70,66,64,64,61,55,93,82,68,29.60,29.45,11,1,12,0.00
2013-6-30,78,72,61,62,55,40,88,58,34,29.81,29.67,19,2,19,0.00
2013-7-1,75,71,59,53,51,47,78,50,40,29.90,29.86,12,2,13,0.00
2013-7-2,67,64,60,56,54,50,82,69,60,29.93,29.89,10,1,12,0.00
2013-7-3,70,64,60,65,61,58,96,91,81,29.91,29.87,7,1,7,0.05
2013-7-4,81,76,59,65,63,58,98,67,53,29.95,29.86,12,3,13,0.01
2013-7-5,86,83,79,66,62,57,63,49,39,29.91,29.83,12,3,12,0.00
2013-7-6,83,77,65,68,66,63,96,70,55,29.90,29.81,10,2,11,0.00
2013-7-7,88,81,70,71,69,66,89,68,55,29.84,29.77,12,3,12,0.00
2013-7-8,85,78,70,78,72,68,95,84,68,29.86,29.75,15,4,17,0.55
2013-7-9,84,80,73,77,75,71,97,83,74,29.81,29.68,23,3,23,0.01
2013-7-10,84,80,76,75,67,58,96,66,49,29.75,29.66,9,2,10,0.00
2013-7-11,80,75,60,61,56,51,95,53,38,29.94,29.90,9,1,10,0.00
2013-7-12,86,76,55,59,51,40,93,45,27,30.00,29.91,7,1,8,0.00
2013-7-13,84,79,60,64,60,54,96,55,37,30.00,29.94,10,2,10,0.00
2013-7-14,88,83,70,70,68,66,89,63,51,30.04,29.99,8,1,9,0.00
2013-7-15,93,83,71,77,73,69,93,73,49,30.09,30.03,9,1,9,0.02
2013-7-16,92,85,75,75,74,72,91,70,54,30.13,30.06,11,3,12,0.00
2013-7-17,93,87,75,75,74,71,88,65,50,30.14,29.99,13,3,13,0.00
2013-7-18,94,87,76,77,74,70,89,66,48,29.97,29.79,16,3,16,0.00
2013-7-19,94,88,70,75,72,65,92,61,45,29.72,29.57,25,6,25,0.15
2013-7-20,80,75,69,68,66,63,86,73,55,29.72,29.67,3,0,3,0.00
2013-7-28,68,64,53,53,51,48,90,64,51,29.84,29.75,13,3,13,0.01
2013-7-29,77,68,55,60,57,52,89,67,50,29.99,29.91,10,1,10,0.00
2013-7-30,72,67,57,65,61,56,95,80,62,30.03,29.93,9,1,9,0.05
2013-7-31,74,69,64,67,66,63,98,90,77,29.88,29.79,8,1,8,0.36
2013-8-1,79,73,60,64,58,52,97,63,42,29.83,29.78,15,2,15,0.01
2013-8-2,84,76,63,70,66,61,95,73,57,29.74,29.68,14,2,14,0.38
2013-8-3,79,74,62,59,54,48,82,51,36,29.90,29.83,8,1,8,0.00
2013-8-4,77,71,58,63,59,55,91,68,51,30.03,29.97,8,1,8,0.00
2013-8-5,73,67,59,64,59,53,91,77,65,29.93,29.73,14,2,18,0.13
2013-8-6,83,75,68,72,70,66,95,83,68,29.74,29.66,11,3,11,0.01
2013-8-7,87,78,71,77,71,66,96,79,56,29.69,29.63,12,2,12,0.02
2013-8-8,78,74,65,64,58,52,91,60,44,29.86,29.80,12,2,12,0.01
2013-8-9,81,75,58,67,62,53,93,64,49,29.85,29.81,12,2,13,0.00
2013-8-10,84,75,63,66,60,56,96,62,42,29.96,29.92,8,1,8,0.00
2013-8-11,81,74,59,68,60,57,97,63,52,29.97,29.88,11,2,11,0.01
2013-8-12,81,76,70,70,67,64,85,73,64,29.83,29.69,12,3,12,0.00
2013-8-13,70,65,58,55,51,47,86,62,48,29.95,29.86,9,1,9,0.00
2013-8-14,75,67,53,54,51,48,95,59,41,30.07,29.98,7,1,9,0.00
2013-8-15,75,68,56,58,55,52,84,64,50,30.02,29.94,10,3,10,0.00
2013-8-16,82,74,59,59,54,50,83,52,36,30.02,29.97,13,1,13,0.00
2013-8-17,81,74,55,64,56,51,98,56,38,30.08,30.01,11,1,11,0.00
2013-8-18,83,75,57,66,59,55,98,60,43,30.05,29.93,8,1,9,0.00
2013-8-19,84,77,59,64,62,57,96,61,48,29.96,29.87,11,2,12,0.00
2013-8-20,86,80,66,67,64,61,91,61,46,29.95,29.86,13,3,13,0.00
2013-8-21,89,82,69,69,67,65,87,62,49,29.92,29.78,17,4,17,0.00
2013-8-22,74,71,69,70,68,67,96,92,83,29.98,29.84,13,2,13,0.32
2013-8-23,82,76,62,68,55,47,98,53,31,30.02,29.90,12,2,12,0.01
2013-8-24,85,78,60,65,62,59,97,62,46,30.10,30.01,10,2,10,0.00
2013-8-25,88,81,68,71,66,57,69,61,54,30.08,29.97,17,4,17,0.00
2013-8-26,91,82,68,75,70,62,83,70,59,29.98,29.84,17,4,17,0.00
2013-8-27,93,86,74,76,73,71,89,68,51,29.81,29.67,20,4,20,0.00
2013-8-28,85,80,75,73,71,69,89,76,64,29.82,29.72,8,1,15,0.00
2013-8-29,90,81,66,71,66,62,98,65,43,29.91,29.82,9,1,9,0.00
2013-8-30,94,84,67,77,72,62,93,70,50,29.75,29.58,19,4,19,0.02
2013-8-31,78,72,68,71,69,66,97,90,79,29.71,29.61,7,0,10,0.41
2013-9-1,84,75,64,72,68,63,98,80,62,29.64,29.56,11,2,12,0.59
2013-9-2,77,72,62,66,63,60,94,75,58,29.77,29.61,10,1,10,0.00
2013-9-3,76,68,54,58,56,52,94,66,49,29.93,29.85,10,1,10,0.00
2013-9-4,82,73,57,62,59,55,94,64,47,29.97,29.90,11,2,11,0.00
2013-9-5,78,71,66,64,56,49,91,61,47,30.09,29.91,11,2,11,0.00
2013-9-6,84,76,60,68,61,50,79,60,51,30.06,29.87,10,2,10,0.00
2013-9-7,86,79,67,68,65,60,89,65,43,29.87,29.72,13,3,15,0.00
2013-9-8,76,73,70,69,68,66,91,82,75,29.85,29.78,10,2,10,0.00
2013-9-9,92,83,68,76,73,66,93,73,59,29.76,29.65,12,3,13,0.00
2013-9-10,93,87,75,75,67,65,73,53,42,29.82,29.66,21,6,21,0.00
2013-9-11,88,80,74,72,69,65,79,68,56,29.87,29.81,11,1,12,0.00
2013-9-12,79,73,64,65,60,52,95,66,39,29.83,29.78,16,3,16,0.00
2013-9-13,70,60,50,58,46,43,80,60,46,30.02,29.83,10,2,10,0.00
2013-9-14,71,62,46,51,47,43,95,60,38,30.04,29.90,11,3,11,0.00
2013-9-15,58,56,54,57,54,48,97,92,68,29.90,29.82,4,0,4,0.73
2013-9-16,64,58,48,51,49,46,92,73,58,30.21,30.12,11,2,11,0.01
2013-9-17,71,62,48,55,52,45,93,70,56,30.18,30.00,9,1,9,0.00
2013-9-18,79,71,61,69,63,54,96,78,65,29.93,29.75,12,2,13,1.02
2013-9-19,86,77,69,76,72,68,97,85,68,29.79,29.59,11,1,11,0.08
2013-9-20,78,70,67,70,64,56,93,80,65,29.66,29.60,16,4,17,0.04
2013-9-21,67,60,52,56,49,47,94,69,53,29.74,29.63,12,2,15,0.00
2013-9-22,68,59,45,52,49,43,95,71,51,29.90,29.84,9,0,9,0.00
2013-9-23,69,60,44,52,49,42,95,68,50,29.97,29.89,8,1,9,0.00
2013-9-24,71,63,48,53,51,46,91,65,48,29.91,29.79,10,1,10,0.00
2013-9-25,71,64,50,57,53,49,98,71,53,29.83,29.78,9,1,9,0.00
2013-9-26,77,64,51,58,53,46,98,73,35,29.92,29.87,9,1,9,0.01
2013-9-27,77,56,53,54,51,48,94,85,37,30.01,29.88,5,0,5,0.00
2013-9-28,76,64,55,60,55,51,86,75,57,29.92,29.84,16,2,16,0.00
2013-9-29,68,60,52,53,50,43,97,71,41,29.90,29.85,8,1,12,0.29
2013-9-30,75,64,45,55,49,44,98,64,37,29.86,29.72,11,2,11,0.00
2013-10-1,78,70,61,65,63,60,96,80,60,29.79,29.72,18,5,19,0.00
2013-10-2,78,71,59,58,49,45,95,49,33,29.93,29.84,9,1,9,0.00
2013-10-3,77,71,66,70,67,46,98,90,45,29.84,29.68,13,2,13,0.12
2013-10-4,74,70,65,69,67,64,95,90,86,29.82,29.75,11,1,11,0.01
2013-10-5,80,73,68,72,69,65,97,88,75,29.75,29.60,20,2,24,0.01
2013-10-6,60,55,51,52,45,40,95,70,52,29.60,29.53,18,4,18,0.13
2013-10-7,67,55,44,48,46,42,95,74,48,29.82,29.66,17,4,18,0.00
2013-10-8,76,63,45,53,49,44,100,66,39,30.04,29.97,11,2,11,0.00
2013-10-9,73,63,47,49,47,43,93,58,36,30.09,29.99,8,1,8,0.00
2013-10-10,75,65,46,55,51,45,98,64,42,30.02,29.90,9,1,9,0.00
2013-10-11,76,68,52,58,55,49,90,64,48,29.92,29.80,12,2,12,0.00
2013-10-12,68,64,53,63,57,46,93,79,61,29.98,29.80,13,3,13,0.06
2013-10-13,58,48,43,45,42,40,91,79,60,30.23,30.14,8,1,8,0.00
2013-10-14,62,56,42,46,45,41,96,68,53,30.25,30.07,11,2,12,0.00
2013-10-15,63,59,52,62,55,47,96,87,76,29.86,29.61,15,2,15,0.13
2013-10-16,62,51,48,60,46,44,94,85,81,29.76,29.62,16,5,16,0.00
2013-10-17,52,49,48,47,46,44,96,90,76,29.73,29.68,14,3,14,0.26
2013-10-18,51,45,40,44,40,37,94,83,73,29.81,29.70,17,4,18,0.00
2013-10-19,53,47,41,41,37,34,88,69,49,29.72,29.64,17,4,18,0.02
2013-10-20,61,52,37,48,43,35,94,73,58,29.74,29.57,14,2,14,0.01
2013-10-21,49,44,40,40,32,27,80,63,47,29.81,29.72,18,4,19,0.01
2013-10-22,40,36,30,36,31,25,92,82,61,29.85,29.78,11,2,11,0.01
2013-10-23,45,38,29,36,29,25,93,69,49,29.87,29.79,15,3,15,0.00
2013-10-24,41,38,35,30,26,23,82,63,51,30.11,29.93,15,3,15,0.00
2013-10-25,32,30,29,27,25,24,84,83,81,30.27,30.24,7,2,8,0.00
2013-10-26,54,47,38,39,33,29,74,57,44,29.94,29.71,18,4,20,0.00
2013-10-27,54,46,30,34,32,27,90,59,43,29.93,29.83,18,4,18,0.00
2013-10-28,53,47,36,43,40,32,92,77,57,30.21,29.85,11,2,11,0.00
2013-10-29,59,50,44,42,41,38,89,72,47,30.22,30.03,8,1,8,0.00
2013-10-30,58,54,47,56,52,42,97,92,71,30.04,29.77,10,1,10,0.06
2013-10-31,62,61,56,61,60,55,97,97,95,29.46,29.02,19,3,19,0.50
2013-11-1,47,46,43,44,42,38,95,86,78,29.57,29.34,18,4,19,0.07
2013-11-2,46,42,37,44,39,36,96,88,79,29.99,29.57,10,1,10,0.02
2013-11-5,54,52,51,51,49,46,94,87,81,30.11,29.93,13,3,13,0.04
2013-11-6,56,48,40,55,46,37,96,92,85,29.93,29.62,21,6,21,0.72
2013-11-7,42,37,29,34,31,26,92,77,63,30.11,30.04,14,4,16,0.00
2013-11-8,47,40,27,34,31,26,95,72,57,30.20,29.95,12,3,12,0.00
2013-11-9,57,52,45,42,40,38,77,64,54,29.86,29.71,27,10,30,0.00
2013-11-10,49,43,34,33,31,29,80,64,50,30.19,30.09,13,3,17,0.00
2013-11-11,46,38,28,37,32,22,94,81,65,30.23,29.94,14,4,14,0.08
2013-11-12,33,28,22,21,18,17,83,68,54,30.58,30.50,12,4,13,0.03
2013-11-13,40,33,19,24,19,14,84,57,39,30.42,30.09,21,9,25,0.00
2013-11-14,48,42,31,30,26,22,69,54,46,29.95,29.80,23,8,24,0.00
2013-11-15,50,44,37,38,33,29,78,65,53,29.84,29.79,18,5,18,0.00
2013-11-16,58,53,46,56,51,44,96,93,90,29.73,29.43,27,8,27,0.33
2013-11-17,67,55,43,63,51,38,96,87,78,29.52,28.97,38,11,38,0.86
2013-11-18,42,38,36,33,30,27,85,70,61,30.02,29.69,25,7,25,0.00
2013-11-19,42,35,24,30,27,21,91,73,59,30.24,30.17,8,2,9,0.00
2013-11-20,44,39,30,37,31,26,93,73,58,30.15,29.96,19,4,20,0.16
2013-11-21,49,47,43,45,43,39,95,85,79,30.03,29.97,9,2,9,0.04
2013-11-22,38,35,30,36,30,26,93,81,71,30.33,30.15,16,4,17,0.02
2013-11-23,24,22,18,18,10,6,77,60,50,30.55,30.33,20,7,22,0.00
2013-11-24,26,21,11,12,7,5,80,57,42,30.61,30.35,15,5,15,0.00
2013-11-25,31,28,24,28,22,15,90,77,58,30.10,29.95,24,8,25,0.00
2013-11-26,33,30,22,28,24,11,89,78,61,30.01,29.90,21,4,21,0.00
2013-11-27,28,21,12,15,12,6,79,66,50,30.13,30.07,13,4,20,0.00
2013-11-28,34,28,22,19,16,12,71,60,54,30.29,30.06,18,4,18,0.00
2013-11-29,36,29,14,23,19,12,92,69,56,30.51,30.33,10,2,12,0.00
2013-11-30,42,35,30,31,27,24,79,73,65,30.16,30.00,18,6,18,0.00
2013-12-27,48,41,33,38,34,30,91,76,62,30.01,29.68,17,6,22,0.01
2013-12-28,38,36,34,32,31,30,86,81,78,29.68,29.62,15,5,20,0.00
2013-12-29,12,7,0,6,0,-6,92,74,62,30.22,30.10,7,2,11,0.00
2013-12-30,10,5,2,4,1,-2,86,82,76,30.25,30.14,12,4,14,0.00
2013-12-31,11,11,10,8,7,4,88,85,75,30.25,30.19,11,2,12,0.00
2014-1-1,21,19,11,20,17,7,100,92,86,30.22,30.08,11,4,15,0.00
2014-1-2,16,13,4,14,10,1,100,88,83,30.28,30.01,14,5,14,0.00